Time;durP1;ratioP1;P1;durP2;ratioP2;P2;SDS_P1;SDS_P2;PMS_P1;PMS_P2;Temp;Humidity;BMP_temperature;BMP_pressure;BME280_temperature;BME280_humidity;BME280_pressure;Samples;Min_cycle;Max_cycle;Signal;HPM_P1;HPM_P2
2021/06/29 00:01:56;;;;;;;11.25;10.15;;;18.00;72.10;;;;;;5160429;27;20114;-68
2021/06/29 00:04:36;;;;;;;16.75;11.70;;;17.90;72.30;;;;;;5155105;27;20111;-68
2021/06/29 00:07:16;;;;;;;15.32;13.45;;;17.90;73.10;;;;;;5169455;27;20109;-69
2021/06/29 00:09:56;;;;;;;15.52;13.93;;;17.90;72.60;;;;;;5161611;27;20118;-68
2021/06/29 00:12:36;;;;;;;15.95;13.73;;;17.90;73.00;;;;;;5156462;27;20581;-68
2021/06/29 00:15:17;;;;;;;13.32;12.02;;;17.90;72.70;;;;;;5170137;27;20474;-68
2021/06/29 00:17:57;;;;;;;13.27;11.63;;;17.90;72.50;;;;;;5155954;27;20103;-68
2021/06/29 00:20:37;;;;;;;12.15;10.88;;;17.90;72.10;;;;;;5157329;27;20107;-69
2021/06/29 00:23:17;;;;;;;11.60;9.98;;;17.90;71.80;;;;;;5156460;27;20117;-69
2021/06/29 00:25:58;;;;;;;12.57;10.20;;;17.80;70.30;;;;;;5103131;27;20556;-69
2021/06/29 00:28:38;;;;;;;9.93;8.93;;;17.90;71.00;;;;;;5162142;27;20115;-69
2021/06/29 00:31:19;;;;;;;9.55;8.55;;;17.90;68.50;;;;;;5157824;27;20109;-69
2021/06/29 00:33:59;;;;;;;9.18;7.95;;;17.90;69.80;;;;;;5160214;27;20106;-68
2021/06/29 00:36:39;;;;;;;10.35;8.30;;;17.80;69.40;;;;;;5152652;27;20489;-69
2021/06/29 00:39:18;;;;;;;7.93;7.15;;;17.80;69.00;;;;;;5159269;27;20118;-69
2021/06/29 00:41:58;;;;;;;7.82;6.50;;;17.80;68.60;;;;;;5155210;27;20115;-68
2021/06/29 00:44:38;;;;;;;7.43;6.22;;;17.80;66.70;;;;;;5177262;27;20105;-68
2021/06/29 00:47:18;;;;;;;7.88;6.32;;;17.80;66.50;;;;;;5157362;27;20114;-69
2021/06/29 00:49:58;;;;;;;8.35;6.13;;;17.70;65.10;;;;;;5159444;27;20580;-69
2021/06/29 00:52:41;;;;;;;6.82;6.18;;;17.70;66.60;;;;;;5158401;27;20118;-69
2021/06/29 00:55:23;;;;;;;7.43;5.80;;;17.80;66.30;;;;;;5148871;27;20119;-68
2021/06/29 00:58:02;;;;;;;6.85;6.15;;;17.70;64.70;;;;;;5168086;27;20106;-68
2021/06/29 01:00:43;;;;;;;7.45;6.70;;;17.80;65.00;;;;;;5171538;27;20110;-68
2021/06/29 01:03:25;;;;;;;11.88;7.25;;;17.90;65.70;;;;;;5153468;27;20193;-69
2021/06/29 01:06:06;;;;;;;10.82;7.07;;;17.80;64.90;;;;;;5157216;27;20115;-68
2021/06/29 01:08:46;;;;;;;9.93;7.10;;;17.80;66.30;;;;;;5171118;27;20122;-68
2021/06/29 01:11:26;;;;;;;8.52;6.57;;;17.70;66.20;;;;;;5159777;27;20114;-68
2021/06/29 01:14:12;;;;;;;7.50;6.15;;;17.80;65.60;;;;;;5158400;27;20098;-69
2021/06/29 01:16:52;;;;;;;7.50;6.40;;;17.90;65.50;;;;;;5153229;27;21122;-68
2021/06/29 01:19:37;;;;;;;6.55;5.50;;;17.90;64.80;;;;;;5155707;27;20110;-67
2021/06/29 01:22:17;;;;;;;7.45;5.43;;;18.00;62.80;;;;;;5157791;27;20577;-68
2021/06/29 01:24:58;;;;;;;8.38;5.80;;;18.00;61.50;;;;;;5158514;27;20119;-68
2021/06/29 01:27:49;;;;;;;6.43;5.53;;;18.00;61.40;;;;;;5154430;27;20117;-68
2021/06/29 01:33:26;;;;;;;7.68;4.68;;;18.10;60.80;;;;;;5159684;27;20110;-68
2021/06/29 01:36:06;;;;;;;7.95;5.28;;;18.10;61.80;;;;;;5145753;27;20130;-67
2021/06/29 01:38:46;;;;;;;8.30;5.50;;;18.20;57.60;;;;;;5154275;27;20122;-68
2021/06/29 01:41:26;;;;;;;6.57;5.97;;;18.10;57.20;;;;;;5158736;27;20114;-68
2021/06/29 01:44:09;;;;;;;8.77;6.55;;;18.10;59.80;;;;;;5172096;27;20545;-68
2021/06/29 01:46:50;;;;;;;10.10;6.10;;;18.00;61.40;;;;;;5149815;27;20118;-69
2021/06/29 01:49:30;;;;;;;7.90;5.68;;;18.00;61.50;;;;;;5154371;27;20119;-68
2021/06/29 01:52:09;;;;;;;11.13;5.75;;;18.10;61.30;;;;;;5158892;27;20473;-68
2021/06/29 01:54:49;;;;;;;8.05;5.15;;;18.10;59.60;;;;;;5173633;27;20112;-68
2021/06/29 01:57:31;;;;;;;5.90;5.30;;;18.20;57.40;;;;;;5157707;27;20117;-68
2021/06/29 02:00:13;;;;;;;5.80;4.38;;;18.30;57.60;;;;;;5154666;27;20107;-68
2021/06/29 02:02:55;;;;;;;5.40;4.90;;;18.50;55.60;;;;;;5157407;27;20221;-68
2021/06/29 02:05:37;;;;;;;6.40;4.82;;;18.20;56.00;;;;;;5153039;27;20637;-69
2021/06/29 02:08:16;;;;;;;4.97;4.38;;;18.00;58.30;;;;;;5151350;27;20123;-67
2021/06/29 02:10:56;;;;;;;10.10;4.68;;;17.80;60.40;;;;;;5153224;27;20118;-67
2021/06/29 02:13:36;;;;;;;6.80;4.82;;;17.90;60.40;;;;;;5156178;27;20114;-68
2021/06/29 02:16:15;;;;;;;6.93;4.50;;;17.80;60.40;;;;;;5170884;27;20117;-68
2021/06/29 02:18:55;;;;;;;6.07;4.75;;;17.70;60.40;;;;;;5156966;27;20581;-68
2021/06/29 02:21:35;;;;;;;5.82;4.85;;;17.70;63.10;;;;;;5154670;27;20118;-67
2021/06/29 02:24:17;;;;;;;4.88;4.47;;;17.70;63.50;;;;;;5159009;27;20110;-67
2021/06/29 02:26:56;;;;;;;5.40;4.90;;;17.60;62.90;;;;;;5168480;27;20117;-68
2021/06/29 02:29:36;;;;;;;7.05;6.32;;;17.60;64.20;;;;;;5170475;27;20114;-68
2021/06/29 02:32:16;;;;;;;9.18;7.05;;;17.60;64.60;;;;;;5158718;27;20118;-67
2021/06/29 02:34:56;;;;;;;7.88;6.97;;;17.50;67.00;;;;;;5155603;27;20577;-67
2021/06/29 02:37:35;;;;;;;9.93;7.25;;;17.50;66.90;;;;;;5154305;27;20122;-68
2021/06/29 02:40:15;;;;;;;8.50;7.70;;;17.60;68.00;;;;;;5175496;27;20113;-66
2021/06/29 02:42:55;;;;;;;8.18;7.15;;;17.70;67.60;;;;;;5157852;27;20118;-67
2021/06/29 02:45:35;;;;;;;8.05;7.18;;;17.70;67.00;;;;;;5170225;27;20115;-68
2021/06/29 02:48:15;;;;;;;7.93;7.13;;;17.70;66.30;;;;;;5155659;27;20115;-67
2021/06/29 02:50:54;;;;;;;8.68;7.28;;;17.70;65.60;;;;;;5159629;27;20111;-66
2021/06/29 02:53:36;;;;;;;8.55;7.75;;;17.70;66.00;;;;;;5173560;27;20184;-67
2021/06/29 02:59:11;;;;;;;8.68;7.80;;;17.50;67.70;;;;;;5160948;27;20115;-68
2021/06/29 03:01:52;;;;;;;8.93;7.88;;;17.50;68.80;;;;;;5170430;27;20118;-68
2021/06/29 03:04:34;;;;;;;7.97;7.18;;;17.40;69.10;;;;;;5171175;27;20114;-67
2021/06/29 03:07:14;;;;;;;8.93;8.02;;;17.40;68.80;;;;;;5155299;27;20456;-68
2021/06/29 03:09:54;;;;;;;8.20;7.20;;;17.50;69.20;;;;;;5163239;27;20115;-66
2021/06/29 03:12:34;;;;;;;10.95;7.70;;;17.50;69.20;;;;;;5163550;27;20110;-66
2021/06/29 03:15:14;;;;;;;9.25;7.25;;;17.50;68.90;;;;;;5153968;27;20111;-67
2021/06/29 03:17:53;;;;;;;7.97;7.13;;;17.50;68.70;;;;;;5157831;27;20114;-67
2021/06/29 03:20:36;;;;;;;10.55;8.40;;;17.50;69.40;;;;;;5153826;27;20189;-67
2021/06/29 03:23:15;;;;;;;10.55;8.20;;;17.60;69.80;;;;;;5173855;27;20482;-67
2021/06/29 03:25:54;;;;;;;8.45;7.65;;;17.60;69.90;;;;;;5152392;27;20118;-67
2021/06/29 03:28:36;;;;;;;9.63;7.95;;;17.70;70.40;;;;;;5152064;27;20898;-68
2021/06/29 03:31:17;;;;;;;10.85;8.70;;;17.60;69.60;;;;;;5160579;27;20617;-67
2021/06/29 03:33:57;;;;;;;9.50;8.57;;;17.70;70.20;;;;;;5173215;27;20105;-66
2021/06/29 03:36:37;;;;;;;10.38;9.10;;;17.70;70.80;;;;;;5141608;27;20115;-67
2021/06/29 03:39:18;;;;;;;10.07;9.07;;;17.70;72.30;;;;;;5172957;27;20105;-67
2021/06/29 03:42:00;;;;;;;9.73;8.73;;;17.60;71.50;;;;;;5162266;27;20173;-67
2021/06/29 03:44:39;;;;;;;16.75;8.65;;;17.50;71.40;;;;;;5156804;27;20111;-67
2021/06/29 03:47:19;;;;;;;9.68;8.38;;;17.50;72.20;;;;;;5157202;27;20115;-68
2021/06/29 03:50:00;;;;;;;12.27;7.63;;;17.40;71.70;;;;;;5161243;27;20198;-67
2021/06/29 03:52:42;;;;;;;9.57;8.57;;;17.50;72.60;;;;;;5156451;27;20735;-67
2021/06/29 03:55:22;;;;;;;12.00;8.10;;;17.70;73.00;;;;;;5165811;27;20122;-67
2021/06/29 03:58:02;;;;;;;10.60;8.18;;;17.80;73.10;;;;;;5154632;27;20103;-67
2021/06/29 04:00:43;;;;;;;8.30;7.60;;;17.70;72.70;;;;;;5172669;27;20180;-67
2021/06/29 04:03:23;;;;;;;10.27;7.75;;;17.70;72.90;;;;;;5155213;27;20419;-67
2021/06/29 04:06:02;;;;;;;10.18;7.45;;;17.70;72.40;;;;;;5150046;27;20115;-66
2021/06/29 04:08:42;;;;;;;11.32;6.78;;;17.80;72.00;;;;;;5168384;27;20117;-67
2021/06/29 04:11:23;;;;;;;10.32;7.60;;;17.80;71.90;;;;;;5156535;27;20107;-67
2021/06/29 04:14:03;;;;;;;8.00;7.20;;;17.70;69.90;;;;;;5157062;27;20107;-67
2021/06/29 04:16:42;;;;;;;9.43;7.43;;;17.70;70.20;;;;;;5139433;27;20119;-65
2021/06/29 04:19:21;;;;;;;7.72;6.93;;;17.70;70.30;;;;;;5173393;27;20113;-67
2021/06/29 04:22:01;;;;;;;8.07;6.90;;;17.70;69.70;;;;;;5160630;27;20465;-67
2021/06/29 04:24:41;;;;;;;6.65;6.05;;;17.70;69.10;;;;;;5175460;27;20106;-66
2021/06/29 04:27:22;;;;;;;8.85;7.97;;;17.70;68.20;;;;;;5150309;27;20126;-67
2021/06/29 04:30:04;;;;;;;7.15;6.10;;;17.80;67.30;;;;;;5159026;27;20105;-66
2021/06/29 04:32:44;;;;;;;7.65;6.05;;;17.70;67.00;;;;;;5174524;27;20105;-67
2021/06/29 04:35:24;;;;;;;8.23;6.13;;;17.60;64.60;;;;;;5152291;27;20320;-66
2021/06/29 04:38:03;;;;;;;6.70;6.00;;;17.50;64.50;;;;;;5154769;27;20120;-66
2021/06/29 04:40:43;;;;;;;9.65;7.15;;;17.50;65.40;;;;;;5160175;27;20111;-67
2021/06/29 04:43:25;;;;;;;8.70;7.80;;;17.40;66.00;;;;;;5160044;27;20167;-67
2021/06/29 04:46:04;;;;;;;7.90;7.20;;;17.40;67.20;;;;;;5143575;27;20482;-66
2021/06/29 04:48:45;;;;;;;8.15;6.70;;;17.30;67.50;;;;;;5155636;27;20111;-67
2021/06/29 04:51:24;;;;;;;9.30;6.50;;;17.40;68.30;;;;;;5162266;27;20106;-66
2021/06/29 04:54:04;;;;;;;9.77;7.00;;;17.30;65.60;;;;;;5157662;27;20098;-67
2021/06/29 04:56:44;;;;;;;7.22;6.07;;;17.40;67.90;;;;;;5157971;27;20123;-66
2021/06/29 04:59:23;;;;;;;9.93;6.82;;;17.30;66.90;;;;;;5156787;27;20579;-65
2021/06/29 05:02:04;;;;;;;8.10;6.13;;;17.40;68.20;;;;;;5161117;27;20118;-66
2021/06/29 05:04:43;;;;;;;6.80;6.10;;;17.40;68.30;;;;;;5158954;27;20593;-67
2021/06/29 05:07:23;;;;;;;6.82;6.20;;;17.40;67.80;;;;;;5169651;27;20113;-67
2021/06/29 05:10:06;;;;;;;7.38;6.60;;;17.60;68.70;;;;;;5171220;27;20229;-67
2021/06/29 05:12:48;;;;;;;7.45;6.65;;;17.80;68.80;;;;;;5166442;27;20180;-67
2021/06/29 05:15:27;;;;;;;7.95;7.07;;;17.80;67.70;;;;;;5153648;27;20132;-67
2021/06/29 05:18:09;;;;;;;8.85;7.10;;;17.90;66.80;;;;;;5153195;27;20114;-67
2021/06/29 05:20:48;;;;;;;8.20;6.72;;;17.90;66.40;;;;;;5158230;27;20472;-67
2021/06/29 05:23:28;;;;;;;9.10;6.68;;;17.80;65.80;;;;;;5170175;27;20113;-67
2021/06/29 05:26:08;;;;;;;8.63;6.75;;;17.90;64.80;;;;;;5157295;27;20106;-67
2021/06/29 05:28:50;;;;;;;7.63;6.60;;;17.90;64.80;;;;;;5107213;27;20105;-66
2021/06/29 05:31:29;;;;;;;8.82;6.82;;;17.80;61.50;;;;;;5130397;27;20760;-67
2021/06/29 05:34:09;;;;;;;9.52;7.47;;;17.90;64.00;;;;;;5148731;27;20115;-67
2021/06/29 05:36:49;;;;;;;11.35;7.70;;;17.80;65.30;;;;;;5138031;27;20114;-66
2021/06/29 05:39:28;;;;;;;12.45;7.45;;;17.80;67.30;;;;;;5170267;27;20102;-66
2021/06/29 05:42:09;;;;;;;11.32;7.40;;;17.80;67.60;;;;;;5157561;27;20103;-67
2021/06/29 05:44:48;;;;;;;10.68;7.47;;;17.80;66.50;;;;;;5157662;27;20123;-66
2021/06/29 05:47:28;;;;;;;9.02;6.97;;;17.80;66.80;;;;;;5153389;27;20111;-67
2021/06/29 05:50:10;;;;;;;8.02;7.22;;;17.70;66.80;;;;;;5156194;27;20737;-67
2021/06/29 05:52:51;;;;;;;11.30;7.55;;;17.70;68.40;;;;;;5155457;27;20194;-67
2021/06/29 05:55:31;;;;;;;11.30;8.05;;;17.70;68.70;;;;;;5161415;27;20118;-66
2021/06/29 05:58:25;;;;;;;8.80;7.60;;;17.80;69.00;;;;;;5155895;27;20117;-67
2021/06/29 06:01:05;;;;;;;9.57;7.85;;;17.90;67.60;;;;;;5153425;27;20115;-66
2021/06/29 06:03:47;;;;;;;8.75;7.38;;;18.00;67.40;;;;;;5153820;27;20477;-67
2021/06/29 06:06:29;;;;;;;7.97;7.18;;;18.00;67.00;;;;;;5162115;27;20103;-67
2021/06/29 06:09:09;;;;;;;8.32;7.47;;;18.00;66.70;;;;;;5154422;27;20125;-67
2021/06/29 06:11:50;;;;;;;10.13;7.68;;;18.10;66.70;;;;;;5169555;27;20632;-67
2021/06/29 06:14:30;;;;;;;10.80;6.80;;;18.40;65.30;;;;;;5161646;27;20111;-66
2021/06/29 06:17:10;;;;;;;11.05;7.90;;;18.60;64.70;;;;;;5167098;27;20113;-66
2021/06/29 06:19:51;;;;;;;11.68;7.13;;;18.60;62.90;;;;;;5151828;27;20117;-66
2021/06/29 06:22:31;;;;;;;8.65;7.07;;;18.70;61.80;;;;;;5175451;27;20580;-67
2021/06/29 06:25:11;;;;;;;11.05;7.03;;;18.70;57.20;;;;;;5158827;27;20126;-67
2021/06/29 06:27:52;;;;;;;12.32;6.45;;;18.90;58.30;;;;;;5149111;27;20107;-66
2021/06/29 06:30:32;;;;;;;9.40;6.32;;;18.90;57.40;;;;;;5159948;27;20105;-67
2021/06/29 06:33:12;;;;;;;9.57;6.07;;;19.10;55.90;;;;;;5158719;27;20114;-67
2021/06/29 06:35:54;;;;;;;7.20;5.60;;;19.10;54.40;;;;;;5156599;27;20522;-67
2021/06/29 06:38:33;;;;;;;9.13;5.47;;;19.10;49.50;;;;;;5154533;27;20159;-67
2021/06/29 06:41:14;;;;;;;9.65;4.70;;;19.20;49.10;;;;;;5155566;27;20115;-68
2021/06/29 06:43:56;;;;;;;5.93;4.30;;;19.60;44.20;;;;;;5156834;27;20631;-68
2021/06/29 06:46:38;;;;;;;9.07;5.03;;;19.70;39.50;;;;;;5153662;27;20198;-67
2021/06/29 06:49:19;;;;;;;6.60;4.07;;;19.70;37.20;;;;;;5154963;27;20114;-68
2021/06/29 06:51:58;;;;;;;6.32;4.57;;;20.00;35.80;;;;;;5157496;27;20473;-67
2021/06/29 06:54:38;;;;;;;5.90;4.88;;;20.00;38.40;;;;;;5160148;27;20119;-67
2021/06/29 06:57:20;;;;;;;7.30;4.53;;;20.60;33.10;;;;;;5166335;27;20110;-66
2021/06/29 07:00:01;;;;;;;12.40;5.00;;;20.60;28.20;;;;;;5158161;27;20627;-67
2021/06/29 07:02:41;;;;;;;6.28;3.75;;;20.60;29.40;;;;;;5132262;27;20108;-67
2021/06/29 07:05:23;;;;;;;10.15;3.88;;;20.90;27.70;;;;;;5152133;27;20186;-66
2021/06/29 07:08:02;;;;;;;6.47;3.38;;;21.10;18.60;;;;;;5164662;27;20106;-67
2021/06/29 07:10:42;;;;;;;3.88;3.20;;;21.50;22.90;;;;;;5153554;27;20577;-67
2021/06/29 07:13:22;;;;;;;6.18;3.17;;;21.60;15.80;;;;;;5159240;27;20110;-67
2021/06/29 07:16:04;;;;;;;5.82;3.38;;;21.80;19.50;;;;;;5145148;27;20111;-67
2021/06/29 07:18:43;;;;;;;5.50;2.90;;;21.80;14.70;;;;;;5167044;27;20113;-67
2021/06/29 07:21:26;;;;;;;3.03;2.60;;;22.00;14.10;;;;;;5164512;27;20597;-65
2021/06/29 07:24:07;;;;;;;6.53;3.38;;;22.30;12.10;;;;;;5156807;27;20115;-67
2021/06/29 07:26:48;;;;;;;9.38;3.80;;;21.90;12.40;;;;;;5156469;27;20201;-67
2021/06/29 07:29:27;;;;;;;3.65;2.45;;;22.30;13.80;;;;;;5149918;27;20127;-67
2021/06/29 07:32:09;;;;;;;6.35;2.10;;;22.40;8.00;;;;;;5156685;27;20173;-67
2021/06/29 07:34:48;;;;;;;2.58;1.83;;;22.80;7.60;;;;;;5156849;27;20121;-67
2021/06/29 07:37:28;;;;;;;3.85;2.00;;;21.90;3.00;;;;;;5166120;27;20118;-67
2021/06/29 07:40:09;;;;;;;4.30;2.38;;;22.60;5.10;;;;;;5155286;27;20099;-67
2021/06/29 07:42:47;;;;;;;2.40;2.20;;;23.10;4.10;;;;;;5174012;27;20471;-67
2021/06/29 07:45:29;;;;;;;1.75;1.65;;;22.90;3.30;;;;;;5149554;27;20111;-67
2021/06/29 07:48:10;;;;;;;3.00;1.80;;;23.30;1.70;;;;;;5168764;27;20105;-66
2021/06/29 07:50:50;;;;;;;2.40;1.50;;;23.10;1.50;;;;;;5173223;27;20460;-67
2021/06/29 07:53:30;;;;;;;1.83;1.63;;;23.20;1.00;;;;;;5158222;27;20119;-67
2021/06/29 07:56:14;;;;;;;3.45;1.60;;;23.50;1.00;;;;;;5105846;27;20113;-66
2021/06/29 07:58:53;;;;;;;3.65;1.50;;;23.70;1.00;;;;;;5149662;27;20476;-66
2021/06/29 08:01:32;;;;;;;5.15;2.00;;;23.50;1.00;;;;;;5159661;27;20110;-67
2021/06/29 08:04:14;;;;;;;5.60;1.73;;;23.00;1.00;;;;;;5135551;27;20116;-67
2021/06/29 08:06:54;;;;;;;5.72;1.55;;;23.10;1.00;;;;;;5132180;27;20115;-68
2021/06/29 08:09:34;;;;;;;1.92;1.58;;;23.50;1.00;;;;;;5166570;27;20413;-67
2021/06/29 08:12:18;;;;;;;3.88;1.77;;;22.60;1.00;;;;;;5158552;27;20127;-68
2021/06/29 08:14:58;;;;;;;1.98;1.50;;;23.40;1.00;;;;;;5161683;27;20478;-67
2021/06/29 08:17:38;;;;;;;2.88;1.80;;;23.50;1.00;;;;;;5150761;27;20107;-66
2021/06/29 08:20:20;;;;;;;1.35;1.13;;;23.80;1.00;;;;;;5157015;27;20194;-67
2021/06/29 08:22:59;;;;;;;3.67;1.45;;;24.00;1.00;;;;;;5159117;27;20106;-68
2021/06/29 08:25:39;;;;;;;1.88;1.58;;;24.20;1.00;;;;;;5149262;27;20592;-67
2021/06/29 08:28:19;;;;;;;1.88;1.65;;;23.70;1.00;;;;;;5161938;27;20126;-68
2021/06/29 08:30:58;;;;;;;3.75;1.50;;;24.20;1.00;;;;;;5159768;27;20286;-67
2021/06/29 08:33:38;;;;;;;1.90;1.55;;;24.10;1.00;;;;;;5155451;27;20122;-67
2021/06/29 08:36:18;;;;;;;1.75;1.63;;;24.10;1.00;;;;;;5163852;27;20111;-67
2021/06/29 08:38:58;;;;;;;2.80;1.73;;;24.30;1.00;;;;;;5157038;27;20122;-68
2021/06/29 08:41:40;;;;;;;4.40;1.45;;;23.50;1.00;;;;;;5157316;27;20631;-66
2021/06/29 08:44:20;;;;;;;3.53;1.60;;;23.40;1.00;;;;;;5154063;27;20274;-67
2021/06/29 08:46:59;;;;;;;3.30;1.52;;;24.00;1.00;;;;;;5153680;27;20121;-67
2021/06/29 08:49:39;;;;;;;2.95;1.48;;;23.40;1.00;;;;;;5155527;27;20126;-67
2021/06/29 08:52:18;;;;;;;2.08;1.33;;;23.30;1.00;;;;;;5163037;27;20110;-67
2021/06/29 08:55:14;;;;;;;2.28;1.15;;;24.20;1.00;;;;;;5090913;27;20109;-67
2021/06/29 08:57:54;;;;;;;1.85;1.20;;;24.20;1.00;;;;;;5150417;27;20103;-69
2021/06/29 09:00:34;;;;;;;6.80;1.60;;;23.90;1.00;;;;;;5173874;27;20125;-67
2021/06/29 09:03:14;;;;;;;1.55;1.08;;;24.20;1.00;;;;;;5157944;27;20561;-67
2021/06/29 09:05:54;;;;;;;1.33;1.23;;;24.50;1.00;;;;;;5154736;27;20114;-68
2021/06/29 09:08:40;;;;;;;3.85;1.30;;;24.40;1.00;;;;;;5155669;27;20186;-67
2021/06/29 09:11:19;;;;;;;3.72;1.50;;;24.60;1.00;;;;;;5151748;27;20115;-67
2021/06/29 09:14:08;;;;;;;1.75;1.25;;;24.30;1.00;;;;;;5160782;27;20106;-67
2021/06/29 09:16:48;;;;;;;1.40;0.95;;;25.10;1.00;;;;;;5152927;27;20121;-67
2021/06/29 09:19:36;;;;;;;2.20;1.13;;;25.30;1.00;;;;;;5155483;27;20118;-67
2021/06/29 09:22:27;;;;;;;2.25;1.05;;;24.50;1.00;;;;;;5158749;27;20119;-67
2021/06/29 09:25:23;;;;;;;1.75;0.98;;;24.70;1.00;;;;;;5155061;27;20119;-68
2021/06/29 09:28:02;;;;;;;3.15;1.27;;;25.70;1.00;;;;;;5153645;27;20107;-66
2021/06/29 09:30:43;;;;;;;2.17;1.30;;;25.20;1.00;;;;;;5151576;27;20123;-68
2021/06/29 09:33:25;;;;;;;1.55;1.20;;;23.80;1.00;;;;;;5167662;27;20114;-68
2021/06/29 09:36:06;;;;;;;1.95;1.73;;;24.00;1.00;;;;;;5145187;27;20124;-66
2021/06/29 09:38:49;;;;;;;2.17;1.10;;;24.40;1.00;;;;;;5154034;27;20117;-68
2021/06/29 09:41:30;;;;;;;3.33;1.20;;;23.60;1.00;;;;;;5176194;27;20102;-67
2021/06/29 09:44:12;;;;;;;3.25;1.15;;;24.00;1.00;;;;;;5164523;27;20188;-67
2021/06/29 09:46:51;;;;;;;2.17;1.35;;;24.10;1.00;;;;;;5153139;27;20769;-68
2021/06/29 09:49:33;;;;;;;1.95;1.02;;;24.80;1.00;;;;;;5170345;27;20236;-68
2021/06/29 09:52:12;;;;;;;2.72;1.40;;;25.40;1.00;;;;;;5073645;27;20102;-67
2021/06/29 09:54:52;;;;;;;2.10;1.20;;;25.40;1.00;;;;;;5161730;27;20114;-66
2021/06/29 09:57:32;;;;;;;2.00;1.27;;;24.80;1.00;;;;;;5152232;27;20476;-67
2021/06/29 10:00:15;;;;;;;4.20;1.50;;;25.30;1.00;;;;;;5152589;27;20182;-68
2021/06/29 10:02:55;;;;;;;4.30;1.70;;;25.60;1.00;;;;;;5160649;27;20110;-67
2021/06/29 10:05:39;;;;;;;3.45;1.65;;;24.90;1.00;;;;;;5149852;27;20469;-68
2021/06/29 10:08:43;;;;;;;1.98;1.42;;;24.60;1.00;;;;;;5151080;27;20555;-66
2021/06/29 10:11:26;;;;;;;3.28;1.33;;;24.50;1.00;;;;;;5157238;27;20106;-68
2021/06/29 10:14:10;;;;;;;2.58;1.65;;;24.70;1.00;;;;;;5158173;27;19998;-67
2021/06/29 10:16:51;;;;;;;3.53;1.75;;;24.80;1.00;;;;;;5148468;27;20107;-66
2021/06/29 10:19:34;;;;;;;2.17;1.52;;;24.70;1.00;;;;;;5156326;27;20109;-68
2021/06/29 10:22:18;;;;;;;2.55;1.50;;;25.10;1.00;;;;;;5155005;27;20174;-66
2021/06/29 10:24:59;;;;;;;2.10;1.50;;;25.30;1.00;;;;;;5159266;27;20484;-68
2021/06/29 10:27:40;;;;;;;1.75;1.40;;;25.50;1.00;;;;;;5155332;27;20122;-68
2021/06/29 10:30:28;;;;;;;1.73;1.50;;;24.90;1.00;;;;;;5168857;27;20471;-67
2021/06/29 10:33:08;;;;;;;2.08;1.58;;;25.00;1.00;;;;;;5154928;27;20366;-67
2021/06/29 10:35:48;;;;;;;4.80;1.55;;;25.30;1.00;;;;;;5168597;27;20122;-68
2021/06/29 10:38:28;;;;;;;2.70;1.42;;;24.50;1.00;;;;;;5156109;27;20117;-67
2021/06/29 10:41:09;;;;;;;3.00;1.70;;;24.50;1.00;;;;;;5153526;27;20193;-68
2021/06/29 10:43:49;;;;;;;4.13;1.88;;;24.40;1.00;;;;;;5172858;27;20480;-67
2021/06/29 10:46:41;;;;;;;2.85;1.60;;;24.70;1.00;;;;;;5146072;27;20120;-68
2021/06/29 10:49:35;;;;;;;1.92;1.60;;;25.00;1.00;;;;;;5094098;27;20176;-68
2021/06/29 10:52:39;;;;;;;4.57;1.80;;;25.10;1.00;;;;;;5160971;27;20619;-67
2021/06/29 10:55:26;;;;;;;2.35;1.83;;;25.30;1.00;;;;;;5164335;27;20118;-68
2021/06/29 10:58:05;;;;;;;2.50;1.77;;;25.20;1.00;;;;;;5147605;27;20358;-67
2021/06/29 11:00:45;;;;;;;3.70;1.95;;;25.30;1.00;;;;;;5158835;27;20465;-68
2021/06/29 11:03:38;;;;;;;2.75;1.63;;;25.20;1.00;;;;;;5168970;27;20117;-68
2021/06/29 11:06:33;;;;;;;3.97;1.90;;;25.30;1.00;;;;;;5154442;27;20118;-68
2021/06/29 11:09:16;;;;;;;4.80;2.22;;;25.00;1.00;;;;;;5125234;27;20462;-68
2021/06/29 11:12:24;;;;;;;2.50;1.80;;;25.00;1.00;;;;;;5163122;27;20126;-67
2021/06/29 11:15:06;;;;;;;2.45;1.95;;;25.30;1.00;;;;;;5171105;27;20719;-68
2021/06/29 11:17:59;;;;;;;2.00;1.67;;;25.40;1.00;;;;;;5166273;27;20122;-67
2021/06/29 11:20:44;;;;;;;3.70;1.70;;;25.90;1.00;;;;;;5153891;27;20111;-67
2021/06/29 11:23:32;;;;;;;5.30;2.30;;;25.70;1.00;;;;;;5156068;27;20560;-68
2021/06/29 11:26:21;;;;;;;3.00;2.08;;;25.60;1.00;;;;;;5151855;27;20484;-68
2021/06/29 11:29:15;;;;;;;2.28;2.03;;;26.20;1.00;;;;;;5152732;27;20110;-68
2021/06/29 11:32:14;;;;;;;9.25;1.90;;;26.20;1.00;;;;;;5158364;27;20119;-68
2021/06/29 11:34:53;;;;;;;4.70;1.77;;;25.90;1.00;;;;;;5158536;27;20098;-67
2021/06/29 11:38:13;;;;;;;2.20;1.60;;;24.90;1.00;;;;;;5167420;27;20787;-69
2021/06/29 11:40:55;;;;;;;2.78;1.70;;;25.00;1.00;;;;;;5157793;27;20240;-68
2021/06/29 11:43:34;;;;;;;1.85;1.75;;;24.80;1.00;;;;;;5152969;27;20195;-69
2021/06/29 11:46:48;;;;;;;2.97;1.80;;;25.00;1.00;;;;;;5122250;27;20582;-67
2021/06/29 11:49:36;;;;;;;3.13;2.22;;;24.50;1.00;;;;;;5145437;27;20127;-68
2021/06/29 11:52:33;;;;;;;3.53;1.60;;;24.60;1.00;;;;;;5159106;27;20118;-69
2021/06/29 11:55:17;;;;;;;3.92;2.20;;;24.70;1.00;;;;;;5156020;27;20126;-68
2021/06/29 11:57:57;;;;;;;3.15;1.70;;;25.00;1.00;;;;;;5165686;27;20114;-69
2021/06/29 12:00:38;;;;;;;2.30;1.80;;;25.00;1.00;;;;;;5155804;27;20118;-68
2021/06/29 12:03:19;;;;;;;5.03;1.65;;;25.30;1.00;;;;;;5163145;27;20103;-69
2021/06/29 12:05:58;;;;;;;3.28;1.70;;;25.60;1.00;;;;;;5152594;27;20119;-68
2021/06/29 12:08:38;;;;;;;2.55;1.58;;;25.30;1.00;;;;;;5169639;27;20106;-68
2021/06/29 12:11:18;;;;;;;2.25;1.60;;;25.10;1.00;;;;;;5159903;27;20119;-68
2021/06/29 12:13:58;;;;;;;4.13;1.70;;;24.90;1.00;;;;;;5156222;27;20098;-68
2021/06/29 12:16:40;;;;;;;1.75;1.42;;;25.30;1.00;;;;;;5156363;27;20113;-67
2021/06/29 12:19:20;;;;;;;3.42;1.83;;;25.30;1.00;;;;;;5162160;27;20106;-68
2021/06/29 12:21:59;;;;;;;2.13;1.70;;;25.70;1.00;;;;;;5157433;27;20106;-67
2021/06/29 12:24:39;;;;;;;2.33;1.67;;;26.00;1.00;;;;;;5152426;27;20114;-67
2021/06/29 12:27:19;;;;;;;4.25;1.63;;;25.90;1.00;;;;;;5158972;27;20566;-68
2021/06/29 12:30:19;;;;;;;2.53;1.60;;;26.10;1.00;;;;;;5152265;27;21299;-67
2021/06/29 12:33:00;;;;;;;2.90;1.63;;;25.80;1.00;;;;;;5155624;27;20962;-69
2021/06/29 12:35:41;;;;;;;3.05;1.70;;;25.60;1.00;;;;;;5151105;27;20116;-69
2021/06/29 12:38:22;;;;;;;4.20;1.75;;;25.90;1.00;;;;;;5152455;27;20477;-67
2021/06/29 12:41:04;;;;;;;2.88;1.42;;;25.30;1.00;;;;;;5158992;27;20119;-68
2021/06/29 12:43:45;;;;;;;2.88;1.30;;;25.40;1.00;;;;;;5175718;27;20102;-68
2021/06/29 12:46:29;;;;;;;3.85;1.48;;;25.30;1.00;;;;;;5091196;27;20113;-68
2021/06/29 12:49:10;;;;;;;1.63;1.52;;;25.00;1.00;;;;;;5152002;27;20110;-68
2021/06/29 12:51:51;;;;;;;2.15;1.77;;;25.10;1.00;;;;;;5160885;27;20110;-68
2021/06/29 12:54:31;;;;;;;2.50;1.77;;;24.80;1.00;;;;;;5173320;27;20114;-69
2021/06/29 12:57:12;;;;;;;2.65;1.70;;;24.40;1.00;;;;;;5152657;27;20118;-68
2021/06/29 12:59:53;;;;;;;2.50;1.90;;;24.50;1.00;;;;;;5158471;27;20110;-68
2021/06/29 13:02:33;;;;;;;5.90;1.80;;;24.10;1.00;;;;;;5155693;27;20122;-68
2021/06/29 13:05:22;;;;;;;2.60;2.30;;;24.10;1.00;;;;;;5154570;27;20628;-68
2021/06/29 13:08:14;;;;;;;4.18;0.98;;;23.90;1.00;;;;;;5172912;27;20121;-68
2021/06/29 13:10:53;;;;;;;2.83;0.55;;;21.30;1.00;;;;;;5159261;27;20122;-67
2021/06/29 13:13:35;;;;;;;6.20;1.02;;;20.40;1.00;;;;;;5158064;27;20193;-66
2021/06/29 13:16:20;;;;;;;8.25;1.25;;;19.50;1.00;;;;;;5153260;27;20122;-66
2021/06/29 13:19:02;;;;;;;9.48;2.15;;;19.00;9.80;;;;;;5157798;27;20025;-66
2021/06/29 13:21:42;;;;;;;6.10;1.63;;;17.80;35.40;;;;;;5151309;27;20127;-66
2021/06/29 13:24:22;;;;;;;5.57;1.45;;;17.20;45.10;;;;;;5155639;27;20123;-66
2021/06/29 13:27:03;;;;;;;5.68;2.13;;;16.90;42.20;;;;;;5151811;27;20127;-65
2021/06/29 13:29:43;;;;;;;6.10;1.75;;;16.90;50.50;;;;;;5151302;27;20478;-68
2021/06/29 13:32:23;;;;;;;4.32;1.98;;;16.50;51.20;;;;;;5158575;27;20110;-67
2021/06/29 13:35:05;;;;;;;3.22;1.70;;;16.60;56.40;;;;;;5153708;27;20187;-68
2021/06/29 13:37:45;;;;;;;6.82;2.25;;;16.60;57.50;;;;;;5160344;27;20106;-68
2021/06/29 13:40:29;;;;;;;11.60;2.10;;;16.70;59.30;;;;;;5157086;27;20110;-68
2021/06/29 13:43:11;;;;;;;9.80;2.08;;;16.10;51.10;;;;;;5153893;27;20110;-69
2021/06/29 13:45:54;;;;;;;5.70;1.80;;;16.00;60.40;;;;;;5146067;27;20122;-69
2021/06/29 13:48:54;;;;;;;7.10;1.40;;;15.80;58.50;;;;;;5148944;27;20115;-70
2021/06/29 13:51:33;;;;;;;1.90;1.20;;;15.90;53.70;;;;;;5157038;27;20113;-69
2021/06/29 13:54:18;;;;;;;2.17;1.10;;;15.90;54.50;;;;;;5159466;27;20103;-69
2021/06/29 13:56:58;;;;;;;2.17;1.20;;;16.10;55.20;;;;;;5100152;27;20116;-69
2021/06/29 13:59:40;;;;;;;4.53;1.17;;;16.20;51.80;;;;;;5155666;27;20114;-70
2021/06/29 14:02:40;;;;;;;0.90;0.77;;;16.40;52.80;;;;;;5158995;27;20461;-68
2021/06/29 14:05:31;;;;;;;2.90;1.15;;;16.40;49.70;;;;;;5148733;27;20127;-69
2021/06/29 14:08:19;;;;;;;2.58;1.10;;;16.50;51.20;;;;;;5158797;27;20107;-69
2021/06/29 14:11:10;;;;;;;4.88;1.10;;;16.40;44.40;;;;;;5157769;27;20205;-69
2021/06/29 14:13:56;;;;;;;3.97;1.77;;;16.50;48.00;;;;;;5158788;27;20122;-68